Time;durP1;ratioP1;P1;durP2;ratioP2;P2;SDS_P1;SDS_P2;PMS_P1;PMS_P2;Temp;Humidity;BMP_temperature;BMP_pressure;BME280_temperature;BME280_humidity;BME280_pressure;Samples;Min_cycle;Max_cycle;Signal;HPM_P1;HPM_P2
2023/12/31 00:04:14;;;;;;;190.75;178.25;;;7.00;99.90;;;;;;12375138;28;20078;-36
2023/12/31 00:10:17;;;;;;;192.55;180.13;;;7.00;99.90;;;;;;12378674;28;20054;-36
2023/12/31 00:16:20;;;;;;;198.30;185.38;;;7.00;99.90;;;;;;12398863;28;20074;-36
2023/12/31 00:22:22;;;;;;;191.95;179.57;;;6.90;99.90;;;;;;12362108;28;20486;-35
2023/12/31 00:28:24;;;;;;;197.88;184.98;;;6.90;99.90;;;;;;12373470;28;20085;-36
2023/12/31 00:34:26;;;;;;;196.88;184.10;;;6.90;99.90;;;;;;12381279;28;20051;-36
2023/12/31 00:40:27;;;;;;;197.90;185.05;;;6.80;99.90;;;;;;12372356;28;20503;-36
2023/12/31 00:46:29;;;;;;;197.07;184.32;;;6.90;99.90;;;;;;12377751;28;20188;-36
2023/12/31 00:52:31;;;;;;;192.45;179.90;;;6.90;99.90;;;;;;12364786;28;20050;-35
2023/12/31 00:58:33;;;;;;;197.93;185.05;;;7.00;99.90;;;;;;12363378;28;20402;-34
2023/12/31 01:04:36;;;;;;;194.63;182.20;;;7.00;99.90;;;;;;12373088;28;20594;-35
2023/12/31 01:10:38;;;;;;;204.38;190.70;;;7.00;99.90;;;;;;12368861;28;20167;-36
2023/12/31 01:16:40;;;;;;;203.98;190.70;;;7.00;99.90;;;;;;12379157;28;20046;-36
2023/12/31 01:22:42;;;;;;;207.18;193.45;;;7.10;99.90;;;;;;12371082;28;20538;-35
2023/12/31 01:28:44;;;;;;;205.60;191.90;;;6.90;99.90;;;;;;12395541;28;20402;-35
2023/12/31 01:34:46;;;;;;;196.40;183.20;;;6.80;99.90;;;;;;12363593;28;20050;-35
2023/12/31 01:40:53;;;;;;;195.88;182.65;;;6.80;99.90;;;;;;12361292;28;20501;-35
2023/12/31 01:46:56;;;;;;;198.50;185.23;;;6.80;99.90;;;;;;12335961;28;1136645;-36
2023/12/31 01:52:58;;;;;;;193.52;180.35;;;6.80;99.90;;;;;;12360284;28;20141;-34
2023/12/31 01:59:03;;;;;;;197.05;183.85;;;6.80;99.90;;;;;;12380368;28;20053;-35
2023/12/31 02:05:05;;;;;;;200.75;187.15;;;6.90;99.90;;;;;;12371638;28;20054;-36
2023/12/31 02:11:08;;;;;;;207.20;193.10;;;6.80;99.90;;;;;;12378141;28;20050;-35
2023/12/31 02:17:10;;;;;;;197.70;184.18;;;6.90;99.90;;;;;;12369635;28;20612;-36
2023/12/31 02:23:12;;;;;;;199.68;186.23;;;6.90;99.90;;;;;;12388837;28;20077;-35
2023/12/31 02:29:14;;;;;;;199.15;185.68;;;7.00;99.90;;;;;;12392305;28;20478;-36
2023/12/31 02:35:15;;;;;;;194.93;181.52;;;7.10;99.90;;;;;;12405825;28;20062;-36
2023/12/31 02:41:17;;;;;;;197.68;184.18;;;7.10;99.90;;;;;;12381381;28;20560;-36
2023/12/31 02:47:19;;;;;;;196.90;183.52;;;7.10;99.90;;;;;;12386477;28;20142;-35
2023/12/31 02:53:21;;;;;;;197.68;183.88;;;7.10;99.90;;;;;;12373363;28;20046;-36
2023/12/31 02:59:23;;;;;;;189.13;176.15;;;7.10;99.90;;;;;;12369645;28;20054;-35
2023/12/31 03:05:25;;;;;;;192.88;179.80;;;7.10;99.90;;;;;;12368948;28;20050;-36
2023/12/31 03:11:26;;;;;;;189.57;176.77;;;7.10;99.90;;;;;;12359580;28;20051;-35
2023/12/31 03:17:28;;;;;;;193.18;180.23;;;7.20;99.90;;;;;;12353804;28;20084;-35
2023/12/31 03:23:30;;;;;;;196.13;182.90;;;7.20;99.90;;;;;;12375920;28;20050;-36
2023/12/31 03:29:32;;;;;;;185.70;173.18;;;7.10;99.90;;;;;;12395323;28;20054;-36
2023/12/31 03:35:34;;;;;;;191.55;178.70;;;7.20;99.90;;;;;;12420230;28;20052;-35
2023/12/31 03:41:36;;;;;;;203.63;189.93;;;7.20;99.90;;;;;;12386598;28;20054;-36
2023/12/31 03:47:38;;;;;;;199.70;186.43;;;7.20;99.90;;;;;;12396865;28;20062;-36
2023/12/31 03:53:41;;;;;;;200.45;187.02;;;7.10;99.90;;;;;;12382649;28;20091;-36
2023/12/31 03:59:43;;;;;;;193.65;180.55;;;7.00;99.90;;;;;;12371306;28;20051;-36
2023/12/31 04:05:45;;;;;;;200.32;186.43;;;7.00;99.90;;;;;;12367559;28;20074;-36
2023/12/31 04:11:47;;;;;;;203.05;189.02;;;7.00;99.90;;;;;;12380257;28;20061;-35
2023/12/31 04:17:49;;;;;;;199.52;186.10;;;6.90;99.90;;;;;;12373838;28;20418;-36
2023/12/31 04:23:51;;;;;;;194.98;181.80;;;7.00;99.90;;;;;;12377618;28;20065;-36
2023/12/31 04:29:53;;;;;;;191.68;178.73;;;7.10;99.90;;;;;;12374867;28;20046;-35
2023/12/31 04:35:55;;;;;;;192.90;180.05;;;7.20;99.90;;;;;;12376944;28;20066;-36
2023/12/31 04:41:57;;;;;;;192.52;179.55;;;7.30;99.90;;;;;;12397559;28;20054;-36
2023/12/31 04:47:59;;;;;;;187.70;175.15;;;7.30;99.90;;;;;;12376740;28;20054;-35
2023/12/31 04:54:01;;;;;;;188.77;176.30;;;7.30;99.90;;;;;;12367983;28;20046;-35
2023/12/31 05:00:04;;;;;;;191.43;178.88;;;7.50;99.90;;;;;;12365532;28;20063;-35
2023/12/31 05:06:06;;;;;;;193.47;180.70;;;7.50;99.90;;;;;;12362722;28;20054;-35
2023/12/31 05:12:08;;;;;;;186.80;174.10;;;7.50;99.90;;;;;;12372279;28;20281;-36
2023/12/31 05:18:10;;;;;;;193.88;180.88;;;7.50;99.90;;;;;;12372787;28;20395;-35
2023/12/31 05:24:12;;;;;;;198.25;184.77;;;7.40;99.90;;;;;;12359718;28;20103;-36
2023/12/31 05:30:14;;;;;;;195.43;182.00;;;7.40;99.90;;;;;;12372833;28;20074;-36
2023/12/31 05:36:16;;;;;;;197.40;184.13;;;7.30;99.90;;;;;;12374494;28;20050;-36
2023/12/31 05:42:18;;;;;;;191.85;178.63;;;7.30;99.90;;;;;;12382759;28;20055;-35
2023/12/31 05:48:21;;;;;;;194.73;181.57;;;7.30;99.90;;;;;;12375452;28;20092;-35
2023/12/31 05:54:23;;;;;;;190.77;177.88;;;7.30;99.90;;;;;;12364355;28;20054;-36
2023/12/31 06:00:25;;;;;;;185.57;173.30;;;7.40;99.90;;;;;;12367204;28;20415;-35
2023/12/31 06:06:27;;;;;;;176.10;164.25;;;7.50;99.90;;;;;;12371787;28;20054;-36
2023/12/31 06:12:31;;;;;;;177.57;165.52;;;7.60;99.90;;;;;;12366001;28;20407;-35
2023/12/31 06:18:33;;;;;;;170.65;159.05;;;7.60;99.90;;;;;;12368723;28;20417;-35
2023/12/31 06:24:35;;;;;;;175.13;163.13;;;7.70;99.90;;;;;;12355646;28;20050;-35
2023/12/31 06:30:38;;;;;;;169.20;157.60;;;7.70;99.90;;;;;;12352613;28;20092;-36
2023/12/31 06:36:40;;;;;;;171.85;160.43;;;7.80;99.90;;;;;;12370109;28;20047;-35
2023/12/31 06:42:42;;;;;;;173.38;161.98;;;7.80;99.90;;;;;;12370950;28;20494;-36
2023/12/31 06:48:44;;;;;;;167.45;156.65;;;7.90;99.90;;;;;;12375021;28;20055;-35
2023/12/31 06:54:46;;;;;;;167.57;156.90;;;8.00;99.90;;;;;;12372768;28;20054;-35
2023/12/31 07:00:48;;;;;;;163.52;152.98;;;8.10;99.90;;;;;;12370530;28;20047;-35
2023/12/31 07:06:49;;;;;;;160.88;150.48;;;8.10;99.90;;;;;;12355808;28;20405;-35
2023/12/31 07:12:52;;;;;;;161.70;151.50;;;8.10;99.90;;;;;;12364902;28;20111;-35
2023/12/31 07:18:55;;;;;;;166.15;155.25;;;8.00;99.90;;;;;;12364788;28;20564;-35
2023/12/31 07:24:58;;;;;;;157.20;147.00;;;7.90;99.90;;;;;;12369105;28;20103;-35
2023/12/31 07:30:59;;;;;;;154.85;145.10;;;7.90;99.90;;;;;;12357565;28;20471;-35
2023/12/31 07:37:02;;;;;;;150.20;140.63;;;7.80;99.90;;;;;;12375509;28;20046;-35
2023/12/31 07:43:04;;;;;;;150.95;141.35;;;7.90;99.90;;;;;;12381213;28;20054;-35
2023/12/31 07:49:06;;;;;;;148.23;138.68;;;7.90;99.90;;;;;;12369719;28;20136;-36
2023/12/31 07:55:11;;;;;;;149.30;140.18;;;7.90;99.90;;;;;;12378825;28;20490;-35
2023/12/31 08:01:13;;;;;;;142.25;133.75;;;8.00;99.90;;;;;;12370167;28;20124;-35
2023/12/31 08:07:15;;;;;;;141.35;132.98;;;8.00;99.90;;;;;;12377567;28;20054;-35
2023/12/31 08:13:17;;;;;;;145.00;136.40;;;8.20;99.90;;;;;;12374860;28;20486;-35
2023/12/31 08:19:19;;;;;;;151.20;142.43;;;8.20;99.90;;;;;;12372921;28;20088;-36
2023/12/31 08:25:21;;;;;;;148.65;140.10;;;8.20;99.90;;;;;;12368826;28;20058;-35
2023/12/31 08:31:23;;;;;;;142.38;134.23;;;8.20;99.90;;;;;;12368223;28;20046;-36
2023/12/31 08:37:25;;;;;;;137.85;130.15;;;8.20;99.90;;;;;;12393911;28;20491;-35
2023/12/31 08:43:27;;;;;;;144.50;136.38;;;8.30;99.90;;;;;;12377004;28;20054;-35
2023/12/31 08:49:29;;;;;;;139.23;131.43;;;8.30;99.90;;;;;;12376274;28;20082;-35
2023/12/31 08:55:31;;;;;;;136.23;128.82;;;8.30;99.90;;;;;;12362811;28;20546;-35
2023/12/31 09:01:33;;;;;;;142.32;134.60;;;8.30;99.90;;;;;;12358464;28;20051;-35
2023/12/31 09:07:35;;;;;;;136.70;129.30;;;8.30;99.90;;;;;;12365698;28;20051;-35
2023/12/31 09:13:37;;;;;;;146.10;138.00;;;8.40;99.90;;;;;;12368946;28;20496;-36
2023/12/31 09:19:40;;;;;;;138.70;131.23;;;8.30;99.90;;;;;;12361588;28;20055;-35
2023/12/31 09:25:42;;;;;;;133.13;126.03;;;8.40;99.90;;;;;;12378439;28;20356;-35
2023/12/31 09:31:44;;;;;;;133.32;126.40;;;8.40;99.90;;;;;;12391003;28;20053;-35
2023/12/31 09:37:46;;;;;;;129.20;122.53;;;8.40;99.90;;;;;;12373183;28;20571;-35
2023/12/31 09:43:52;;;;;;;131.82;124.97;;;8.30;99.90;;;;;;12361429;28;20081;-36
2023/12/31 09:49:56;;;;;;;133.05;125.95;;;8.40;99.90;;;;;;12382167;28;20051;-35
2023/12/31 09:55:58;;;;;;;131.80;124.80;;;8.30;99.90;;;;;;12368812;28;20106;-35
2023/12/31 10:02:04;;;;;;;131.02;124.07;;;8.30;99.90;;;;;;12367265;28;20066;-36
2023/12/31 10:08:08;;;;;;;127.38;120.60;;;8.30;99.90;;;;;;12380145;28;20059;-36
2023/12/31 10:14:12;;;;;;;121.82;115.43;;;8.30;99.90;;;;;;12373687;28;20199;-35
2023/12/31 10:20:14;;;;;;;124.57;117.88;;;8.40;99.90;;;;;;12370495;28;20070;-35
2023/12/31 10:26:16;;;;;;;123.43;116.72;;;8.50;99.90;;;;;;12360641;28;20142;-36
2023/12/31 10:32:20;;;;;;;120.30;114.00;;;8.60;99.90;;;;;;12365125;28;20059;-36
2023/12/31 10:38:22;;;;;;;117.00;111.03;;;8.80;99.90;;;;;;12395935;28;20072;-35
2023/12/31 10:44:25;;;;;;;117.18;111.07;;;8.90;99.90;;;;;;12379006;28;20049;-35
2023/12/31 10:50:28;;;;;;;108.32;102.93;;;8.90;99.90;;;;;;12388270;28;20061;-36
2023/12/31 10:56:31;;;;;;;104.13;98.90;;;9.00;99.90;;;;;;12370990;28;20047;-36
2023/12/31 11:02:33;;;;;;;112.82;107.03;;;9.00;99.90;;;;;;12392620;28;20402;-36
2023/12/31 11:08:37;;;;;;;111.85;106.05;;;8.90;99.90;;;;;;12361062;28;20383;-36
2023/12/31 11:14:54;;;;;;;110.40;104.73;;;9.00;99.90;;;;;;12353410;28;20050;-35
2023/12/31 11:21:08;;;;;;;106.85;101.40;;;9.00;99.90;;;;;;12366423;28;20326;-36
2023/12/31 11:27:17;;;;;;;117.07;111.10;;;9.10;99.90;;;;;;12353916;28;20070;-36
2023/12/31 11:33:24;;;;;;;109.72;104.13;;;9.10;99.90;;;;;;12380607;28;20044;-36
2023/12/31 11:39:26;;;;;;;112.72;107.03;;;9.10;99.90;;;;;;12370455;28;20058;-36
2023/12/31 11:45:45;;;;;;;111.78;106.05;;;9.10;99.90;;;;;;12373613;28;20514;-35
2023/12/31 11:51:58;;;;;;;103.10;97.70;;;9.10;99.90;;;;;;12387711;28;20046;-36
2023/12/31 11:58:01;;;;;;;103.10;98.03;;;9.20;99.90;;;;;;12376361;28;20069;-36
2023/12/31 12:04:03;;;;;;;110.38;104.88;;;9.30;99.90;;;;;;12381072;28;20088;-35
2023/12/31 12:10:06;;;;;;;104.28;99.03;;;9.40;99.90;;;;;;12369612;28;21014;-36
2023/12/31 12:16:08;;;;;;;107.40;102.18;;;9.40;99.90;;;;;;12371934;28;20055;-35
2023/12/31 12:22:11;;;;;;;103.07;97.97;;;9.40;99.90;;;;;;12371990;28;20085;-36
2023/12/31 12:28:14;;;;;;;106.95;101.75;;;9.50;99.90;;;;;;12377594;28;20102;-36
2023/12/31 12:34:17;;;;;;;105.82;100.63;;;9.50;99.90;;;;;;12389698;28;20073;-36
2023/12/31 12:40:20;;;;;;;109.27;103.97;;;9.60;99.90;;;;;;12380732;28;20050;-35
2023/12/31 12:46:29;;;;;;;131.60;125.20;;;9.60;99.90;;;;;;12405588;28;20085;-36
2023/12/31 12:52:31;;;;;;;132.88;126.25;;;9.40;99.90;;;;;;12373964;28;20046;-36
2023/12/31 12:58:33;;;;;;;130.68;124.05;;;9.10;99.90;;;;;;12386406;28;20077;-36
2023/12/31 13:04:35;;;;;;;129.65;123.03;;;9.00;99.90;;;;;;12382487;28;20053;-36
2023/12/31 13:10:37;;;;;;;124.30;117.90;;;9.00;99.90;;;;;;12376366;28;20057;-36
2023/12/31 13:16:43;;;;;;;126.80;120.20;;;9.10;99.90;;;;;;12371450;28;20085;-36
2023/12/31 13:22:51;;;;;;;121.20;114.85;;;9.20;99.90;;;;;;12374901;28;20114;-36
2023/12/31 13:28:53;;;;;;;114.90;108.80;;;9.30;99.90;;;;;;12359170;28;20154;-36
2023/12/31 13:34:59;;;;;;;124.05;117.43;;;9.30;99.90;;;;;;12383737;28;20047;-35
2023/12/31 13:41:02;;;;;;;121.78;115.47;;;9.40;99.90;;;;;;12369252;28;20414;-35
2023/12/31 13:47:04;;;;;;;121.68;115.13;;;9.40;99.90;;;;;;12363295;28;20093;-36
2023/12/31 13:53:09;;;;;;;117.95;111.70;;;9.40;99.90;;;;;;12376677;28;20467;-35
2023/12/31 13:59:12;;;;;;;111.90;105.95;;;9.30;99.90;;;;;;12362989;28;20501;-35
2023/12/31 14:05:14;;;;;;;112.28;106.57;;;9.40;99.90;;;;;;12371695;28;20078;-35
2023/12/31 14:11:17;;;;;;;120.68;114.35;;;9.40;99.90;;;;;;12379880;28;20052;-35
2023/12/31 14:17:19;;;;;;;110.43;104.72;;;9.40;99.90;;;;;;12371990;28;20478;-35
2023/12/31 14:23:21;;;;;;;116.20;110.22;;;9.40;99.90;;;;;;12365283;28;20054;-35
2023/12/31 14:29:22;;;;;;;104.95;99.65;;;9.30;99.90;;;;;;12378003;28;20376;-35
2023/12/31 14:35:24;;;;;;;121.18;114.90;;;9.30;99.90;;;;;;12370637;28;20069;-35
2023/12/31 14:41:26;;;;;;;120.43;114.38;;;9.20;99.90;;;;;;12370071;28;20383;-35
2023/12/31 14:47:28;;;;;;;114.85;109.13;;;9.10;99.90;;;;;;12365038;28;20050;-36
2023/12/31 14:53:30;;;;;;;110.30;104.75;;;8.90;99.90;;;;;;12369884;28;20053;-36
2023/12/31 14:59:32;;;;;;;110.35;104.85;;;8.90;99.90;;;;;;12368645;28;20054;-35
2023/12/31 15:05:35;;;;;;;100.30;95.40;;;8.80;99.90;;;;;;12372327;28;20053;-35
2023/12/31 15:11:39;;;;;;;99.47;94.57;;;8.90;99.90;;;;;;12373152;28;20043;-35
2023/12/31 15:17:41;;;;;;;92.93;88.38;;;8.80;99.90;;;;;;12375864;28;20053;-35
2023/12/31 15:23:43;;;;;;;100.00;95.13;;;8.70;99.90;;;;;;12379710;28;20105;-35
2023/12/31 15:29:45;;;;;;;111.70;106.10;;;8.80;99.90;;;;;;12355579;28;20054;-36
2023/12/31 15:35:51;;;;;;;122.38;115.68;;;8.50;99.90;;;;;;12385765;28;20074;-36
2023/12/31 15:41:53;;;;;;;122.40;115.50;;;8.10;99.90;;;;;;12379878;28;20082;-36
2023/12/31 15:47:56;;;;;;;117.93;111.22;;;7.90;99.90;;;;;;12374323;28;20430;-35
2023/12/31 15:53:58;;;;;;;114.55;108.15;;;7.70;99.90;;;;;;12380847;28;20054;-35
2023/12/31 16:00:00;;;;;;;104.57;98.60;;;7.60;99.90;;;;;;12371887;28;20156;-36
2023/12/31 16:06:02;;;;;;;104.65;98.65;;;7.40;99.90;;;;;;12365200;28;20047;-35
2023/12/31 16:12:05;;;;;;;101.88;95.82;;;7.20;99.90;;;;;;12381652;28;20053;-35
2023/12/31 16:18:06;;;;;;;107.85;101.65;;;7.10;99.90;;;;;;12366998;28;20042;-36
2023/12/31 16:24:09;;;;;;;103.88;98.05;;;7.10;99.90;;;;;;12368774;28;20047;-35
2023/12/31 16:30:11;;;;;;;100.07;94.28;;;7.00;99.90;;;;;;12370123;28;20683;-35
2023/12/31 16:36:13;;;;;;;100.30;94.40;;;6.90;99.90;;;;;;12390110;28;20445;-35
2023/12/31 16:42:15;;;;;;;100.32;94.50;;;6.70;99.90;;;;;;12367421;28;20050;-36
2023/12/31 16:48:21;;;;;;;101.68;95.82;;;6.60;99.90;;;;;;12370255;28;20065;-35
2023/12/31 16:54:23;;;;;;;101.45;95.65;;;6.60;99.90;;;;;;12361700;28;20055;-36
2023/12/31 17:00:25;;;;;;;97.22;91.60;;;6.60;99.90;;;;;;12371634;28;20046;-36
2023/12/31 17:06:27;;;;;;;100.88;95.18;;;6.70;99.90;;;;;;12362267;28;20051;-36
2023/12/31 17:12:29;;;;;;;103.95;98.13;;;6.80;99.90;;;;;;12373929;28;20042;-35
2023/12/31 17:18:31;;;;;;;102.90;96.80;;;6.70;99.90;;;;;;12366920;28;20057;-36
2023/12/31 17:24:33;;;;;;;101.93;96.13;;;6.70;99.90;;;;;;12359386;28;20047;-35
2023/12/31 17:30:35;;;;;;;105.25;99.13;;;6.70;99.90;;;;;;12359275;28;20460;-34
2023/12/31 17:36:36;;;;;;;107.75;101.55;;;6.70;99.90;;;;;;12369597;28;20149;-35
2023/12/31 17:42:38;;;;;;;113.00;106.47;;;6.60;99.90;;;;;;12371874;28;20074;-35
2023/12/31 17:48:40;;;;;;;110.28;103.70;;;6.40;99.90;;;;;;12363148;28;20141;-36
2023/12/31 17:54:42;;;;;;;106.85;100.70;;;6.30;99.90;;;;;;12368140;28;20550;-35
2023/12/31 18:00:44;;;;;;;103.13;97.20;;;6.20;99.90;;;;;;12361639;28;20057;-36
2023/12/31 18:06:46;;;;;;;101.15;95.30;;;6.20;99.90;;;;;;12362521;28;20073;-36
2023/12/31 18:12:50;;;;;;;103.82;97.25;;;6.40;99.90;;;;;;12365298;28;20046;-35
2023/12/31 18:18:52;;;;;;;104.80;98.60;;;6.60;99.90;;;;;;12376013;28;20058;-35
2023/12/31 18:24:54;;;;;;;106.85;100.78;;;6.70;99.90;;;;;;12363478;28;20487;-36
2023/12/31 18:30:56;;;;;;;108.82;102.78;;;6.80;99.90;;;;;;12361947;28;20494;-37
2023/12/31 18:36:59;;;;;;;105.32;99.32;;;6.90;99.90;;;;;;12360666;28;20137;-35
2023/12/31 18:43:01;;;;;;;102.45;96.72;;;6.90;99.90;;;;;;12363175;28;20148;-36
2023/12/31 18:49:03;;;;;;;105.47;99.63;;;7.00;99.90;;;;;;12378867;28;20050;-36
2023/12/31 18:55:06;;;;;;;113.50;107.10;;;7.00;99.90;;;;;;12359702;28;20105;-36
2023/12/31 19:01:08;;;;;;;111.32;104.85;;;6.90;99.90;;;;;;12370737;28;20076;-35
2023/12/31 19:07:10;;;;;;;108.20;101.82;;;7.00;99.90;;;;;;12354889;28;20137;-35
2023/12/31 19:13:12;;;;;;;106.53;100.32;;;7.00;99.90;;;;;;12364073;28;20402;-36
2023/12/31 19:19:14;;;;;;;105.65;99.50;;;7.20;99.90;;;;;;12357771;28;20549;-35
2023/12/31 19:25:16;;;;;;;110.07;103.78;;;7.20;99.90;;;;;;12404914;28;20123;-36
2023/12/31 19:31:17;;;;;;;105.03;99.35;;;7.30;99.90;;;;;;12366289;28;20050;-36
2023/12/31 19:37:20;;;;;;;117.30;109.03;;;7.30;99.90;;;;;;12377868;28;20444;-35
2023/12/31 19:43:24;;;;;;;106.28;100.60;;;7.30;99.90;;;;;;12374657;28;20406;-36
2023/12/31 19:49:28;;;;;;;104.60;99.05;;;7.40;99.90;;;;;;12372939;28;20489;-35
2023/12/31 19:55:30;;;;;;;100.85;95.45;;;7.40;99.90;;;;;;12363224;28;20494;-36
2023/12/31 20:01:35;;;;;;;100.35;94.45;;;7.50;99.90;;;;;;12358384;28;20418;-36
2023/12/31 20:07:36;;;;;;;98.78;93.55;;;7.50;99.90;;;;;;12366634;28;20398;-35
2023/12/31 20:13:38;;;;;;;93.18;88.20;;;7.60;99.90;;;;;;12371521;28;20099;-35
2023/12/31 20:19:40;;;;;;;94.63;89.43;;;7.70;99.90;;;;;;12374463;28;20074;-36
2023/12/31 20:25:45;;;;;;;92.43;87.63;;;7.70;99.90;;;;;;12378808;28;20050;-36
2023/12/31 20:31:49;;;;;;;90.20;85.53;;;7.70;99.90;;;;;;12371690;28;20050;-36
2023/12/31 20:37:51;;;;;;;88.32;83.72;;;7.80;99.90;;;;;;12377276;28;21547;-36
2023/12/31 20:43:53;;;;;;;85.00;80.30;;;7.80;99.90;;;;;;12393363;28;20058;-36
2023/12/31 20:49:56;;;;;;;84.82;80.25;;;7.90;99.90;;;;;;12371131;28;20062;-36
2023/12/31 20:55:58;;;;;;;80.85;76.47;;;7.80;99.90;;;;;;12366447;28;20047;-35
2023/12/31 21:02:00;;;;;;;81.80;77.60;;;7.90;99.90;;;;;;12373284;28;20184;-35
2023/12/31 21:08:02;;;;;;;83.78;79.35;;;7.80;99.90;;;;;;12372189;28;20050;-36
2023/12/31 21:14:07;;;;;;;76.10;72.10;;;7.70;99.90;;;;;;12370250;28;20047;-36
2023/12/31 21:20:09;;;;;;;71.28;67.45;;;7.80;99.90;;;;;;12372338;28;20098;-34
2023/12/31 21:26:17;;;;;;;76.05;72.18;;;7.80;99.90;;;;;;12362931;28;20058;-36
2023/12/31 21:32:19;;;;;;;71.43;67.82;;;7.80;99.90;;;;;;12367890;28;20051;-35
2023/12/31 21:38:21;;;;;;;70.90;67.15;;;7.80;99.90;;;;;;12376180;28;20783;-36
2023/12/31 21:44:24;;;;;;;64.93;61.53;;;7.80;99.90;;;;;;12364561;28;20058;-35
2023/12/31 21:50:26;;;;;;;69.07;65.47;;;7.90;99.90;;;;;;12371049;28;20051;-36
2023/12/31 21:56:28;;;;;;;73.53;69.85;;;7.70;99.90;;;;;;12365784;28;20192;-35
2023/12/31 22:02:51;;;;;;;74.55;70.68;;;7.60;99.90;;;;;;12361948;28;20120;-36
2023/12/31 22:08:53;;;;;;;75.97;71.97;;;7.60;99.90;;;;;;12365953;28;20563;-35
2023/12/31 22:14:54;;;;;;;76.20;72.20;;;7.50;99.90;;;;;;12355303;28;20071;-36
2023/12/31 22:20:56;;;;;;;79.25;75.05;;;7.40;99.90;;;;;;12358924;28;20054;-36
2023/12/31 22:26:59;;;;;;;81.88;77.95;;;7.50;99.90;;;;;;12364841;28;20058;-36
2023/12/31 22:33:01;;;;;;;90.13;85.72;;;7.40;99.90;;;;;;12369305;28;20070;-36
2023/12/31 22:39:03;;;;;;;92.50;87.82;;;7.40;99.90;;;;;;12374848;28;20309;-35
2023/12/31 22:45:05;;;;;;;87.45;82.97;;;7.30;99.90;;;;;;12360067;28;20055;-35
2023/12/31 22:51:09;;;;;;;85.57;80.90;;;7.30;99.90;;;;;;12368047;28;20074;-36
2023/12/31 22:57:11;;;;;;;87.97;83.53;;;7.40;99.90;;;;;;12358586;28;20510;-36
2023/12/31 23:03:13;;;;;;;85.18;80.78;;;7.40;99.90;;;;;;12375597;28;20058;-35
2023/12/31 23:09:14;;;;;;;81.97;77.50;;;7.40;99.90;;;;;;12371431;28;20126;-35
2023/12/31 23:15:16;;;;;;;78.03;73.70;;;7.50;99.90;;;;;;12366364;28;20135;-35
2023/12/31 23:21:18;;;;;;;76.90;73.00;;;7.50;99.90;;;;;;12369072;28;20073;-35
2023/12/31 23:27:20;;;;;;;80.85;76.75;;;7.60;99.90;;;;;;12370864;28;20050;-35
2023/12/31 23:33:22;;;;;;;79.68;75.45;;;7.60;99.90;;;;;;12365997;28;20039;-35
2023/12/31 23:39:24;;;;;;;85.15;80.53;;;7.60;99.90;;;;;;12367435;28;20078;-35
2023/12/31 23:45:26;;;;;;;82.80;78.25;;;7.50;99.90;;;;;;12403140;28;20054;-35
2023/12/31 23:51:28;;;;;;;82.13;77.65;;;7.60;99.90;;;;;;12361045;28;20058;-35
2023/12/31 23:57:30;;;;;;;82.22;77.72;;;7.50;99.90;;;;;;12372562;28;20486;-35
